createdAt,value
2023-03-31T00:04:05.760Z,100.00
2023-03-31T00:09:19.071Z,100.00
2023-03-31T00:14:22.157Z,100.00
2023-03-31T00:19:25.161Z,100.00
2023-03-31T00:24:32.816Z,100.00
2023-03-31T00:29:36.193Z,100.00
2023-03-31T00:34:39.091Z,100.00
2023-03-31T00:39:43.413Z,100.00
2023-03-31T00:45:09.578Z,100.00
2023-03-31T00:50:19.009Z,100.00
2023-03-31T00:55:27.016Z,100.00
2023-03-31T01:00:30.474Z,100.00
2023-03-31T01:05:40.033Z,100.00
2023-03-31T01:10:48.063Z,100.00
2023-03-31T01:15:51.546Z,100.00
2023-03-31T01:20:57.248Z,100.00
2023-03-31T01:26:22.839Z,100.00
2023-03-31T01:31:56.612Z,100.00
2023-03-31T01:37:37.812Z,100.00
2023-03-31T01:42:57.692Z,100.00
2023-03-31T01:48:21.273Z,100.00
2023-03-31T01:53:45.403Z,100.00
2023-03-31T01:58:58.965Z,100.00
2023-03-31T02:04:09.935Z,100.00
2023-03-31T02:09:19.908Z,100.00
2023-03-31T02:14:26.674Z,100.00
2023-03-31T02:19:40.167Z,100.00
2023-03-31T02:24:46.105Z,100.00
2023-03-31T02:29:49.737Z,100.00
2023-03-31T02:34:53.958Z,100.00
2023-03-31T02:40:00.542Z,100.00
2023-03-31T02:45:08.343Z,100.00
2023-03-31T02:50:11.202Z,100.00
2023-03-31T02:55:37.718Z,100.00
2023-03-31T03:00:55.315Z,100.00
2023-03-31T03:06:13.916Z,100.00
2023-03-31T03:11:39.314Z,100.00
2023-03-31T03:16:48.058Z,100.00
2023-03-31T03:21:50.788Z,100.00
2023-03-31T03:26:53.462Z,100.00
2023-03-31T03:31:56.149Z,100.00
2023-03-31T03:36:58.856Z,100.00
2023-03-31T03:42:01.591Z,100.00
2023-03-31T03:47:04.440Z,100.00
2023-03-31T03:52:07.777Z,100.00
2023-03-31T03:57:11.019Z,100.00
2023-03-31T04:02:14.524Z,100.00
2023-03-31T04:07:17.705Z,100.00
2023-03-31T04:12:20.501Z,100.00
2023-03-31T04:17:33.268Z,100.00
2023-03-31T04:22:41.048Z,100.00
2023-03-31T04:27:55.198Z,100.00
2023-03-31T04:33:00.781Z,100.00
2023-03-31T04:38:03.547Z,100.00
2023-03-31T04:43:06.398Z,100.00
2023-03-31T04:48:09.693Z,100.00
2023-03-31T04:53:12.498Z,100.00
2023-03-31T04:58:15.511Z,100.00
2023-03-31T05:03:19.248Z,100.00
2023-03-31T05:08:22.019Z,100.00
2023-03-31T05:13:25.143Z,100.00
2023-03-31T05:18:28.016Z,100.00
2023-03-31T05:23:31.263Z,100.00
2023-03-31T05:28:34.686Z,100.00
2023-03-31T05:33:42.225Z,100.00
2023-03-31T05:38:45.917Z,100.00
2023-03-31T05:43:48.666Z,100.00
2023-03-31T05:48:51.416Z,100.00
2023-03-31T05:53:54.837Z,100.00
2023-03-31T05:59:00.559Z,100.00
2023-03-31T06:04:03.497Z,100.00
2023-03-31T06:09:06.719Z,100.00
2023-03-31T06:14:09.483Z,100.00
2023-03-31T06:19:12.324Z,100.00
2023-03-31T06:24:15.020Z,100.00
2023-03-31T06:29:17.695Z,100.00
2023-03-31T06:34:21.499Z,100.00
2023-03-31T06:39:28.329Z,100.00
2023-03-31T06:44:32.192Z,100.00
2023-03-31T06:49:35.478Z,100.00
2023-03-31T06:54:38.455Z,100.00
2023-03-31T06:59:41.491Z,100.00
2023-03-31T07:04:44.405Z,100.00
2023-03-31T07:09:48.367Z,100.00
2023-03-31T07:14:52.575Z,100.00
2023-03-31T07:19:55.646Z,100.00
2023-03-31T07:24:58.330Z,100.00
2023-03-31T07:30:01.432Z,100.00
2023-03-31T07:35:04.108Z,100.00
2023-03-31T07:40:07.960Z,100.00
2023-03-31T07:45:10.997Z,100.00
2023-03-31T07:50:14.512Z,100.00
2023-03-31T07:55:17.974Z,100.00
2023-03-31T08:00:21.321Z,100.00
2023-03-31T08:05:25.925Z,100.00
2023-03-31T08:10:32.311Z,100.00
2023-03-31T08:20:28.452Z,100.00
2023-03-31T08:25:31.936Z,100.00
2023-03-31T08:30:34.750Z,100.00
2023-03-31T08:35:38.099Z,100.00
2023-03-31T08:40:41.687Z,100.00
2023-03-31T08:45:47.844Z,100.00
2023-03-31T08:51:04.823Z,100.00
2023-03-31T08:56:15.412Z,100.00
2023-03-31T09:01:47.716Z,100.00
2023-03-31T09:07:09.426Z,100.00
2023-03-31T09:12:21.057Z,100.00
2023-03-31T09:17:39.126Z,100.00
2023-03-31T09:22:47.115Z,100.00
2023-03-31T09:27:53.204Z,100.00
2023-03-31T09:33:17.393Z,100.00
2023-03-31T09:38:20.144Z,100.00
2023-03-31T09:43:26.565Z,100.00
2023-03-31T09:48:35.199Z,100.00
2023-03-31T09:53:47.428Z,100.00
2023-03-31T09:58:50.341Z,100.00
2023-03-31T10:03:54.904Z,100.00
2023-03-31T10:09:01.592Z,100.00
2023-03-31T10:14:13.649Z,100.00
2023-03-31T10:19:28.485Z,100.00
2023-03-31T10:24:42.910Z,100.00
2023-03-31T10:29:45.767Z,100.00
2023-03-31T10:34:49.009Z,100.00
2023-03-31T10:40:07.397Z,100.00
2023-03-31T10:45:37.023Z,100.00
2023-03-31T10:50:43.942Z,100.00
2023-03-31T10:56:16.307Z,100.00
2023-03-31T11:01:34.652Z,100.00
2023-03-31T11:07:01.159Z,100.00
2023-03-31T11:12:19.223Z,100.00
2023-03-31T11:17:43.177Z,100.00
2023-03-31T11:23:04.451Z,100.00
2023-03-31T11:28:36.580Z,100.00
2023-03-31T11:34:03.203Z,100.00
2023-03-31T11:39:42.943Z,100.00
2023-03-31T11:44:53.169Z,100.00
2023-03-31T11:50:00.482Z,100.00
2023-03-31T11:55:21.565Z,100.00
2023-03-31T12:00:29.671Z,100.00
2023-03-31T12:05:38.255Z,100.00
2023-03-31T12:10:55.914Z,100.00
2023-03-31T12:16:05.173Z,100.00
2023-03-31T12:21:10.402Z,100.00
2023-03-31T12:26:13.146Z,100.00
2023-03-31T12:31:23.538Z,100.00
2023-03-31T12:36:41.455Z,100.00
2023-03-31T12:42:03.081Z,100.00
2023-03-31T12:47:21.380Z,100.00
2023-03-31T12:52:36.847Z,100.00
2023-03-31T12:57:39.526Z,100.00
2023-03-31T13:02:42.510Z,100.00
2023-03-31T13:07:45.477Z,100.00
2023-03-31T13:13:00.986Z,100.00
2023-03-31T13:18:06.398Z,100.00
2023-03-31T13:23:21.529Z,100.00
2023-03-31T13:28:34.391Z,100.00
2023-03-31T13:33:41.183Z,100.00
2023-03-31T13:38:46.777Z,100.00
2023-03-31T13:43:58.445Z,100.00
2023-03-31T13:49:22.662Z,100.00
2023-03-31T13:54:46.065Z,100.00
2023-03-31T14:00:12.492Z,100.00
2023-03-31T14:06:04.481Z,100.00
2023-03-31T14:11:33.523Z,99.42
2023-03-31T14:16:44.201Z,98.48
2023-03-31T14:22:13.497Z,93.86
2023-03-31T14:28:01.365Z,95.30
2023-03-31T14:33:25.147Z,94.45
2023-03-31T14:38:29.840Z,94.27
2023-03-31T14:43:39.981Z,92.07
2023-03-31T14:48:47.452Z,90.90
2023-03-31T14:53:56.567Z,89.01
2023-03-31T14:59:04.118Z,92.01
2023-03-31T15:04:14.455Z,95.30
2023-03-31T15:09:27.439Z,98.23
2023-03-31T15:20:40.176Z,96.61
2023-03-31T15:25:44.479Z,92.68
2023-03-31T15:36:22.830Z,91.27
2023-03-31T15:41:31.872Z,92.08
2023-03-31T15:46:43.828Z,94.22
2023-03-31T15:51:47.951Z,93.55
2023-03-31T15:56:51.361Z,94.91
2023-03-31T16:01:56.801Z,96.69
2023-03-31T16:07:09.282Z,97.63
2023-03-31T16:12:17.706Z,98.88
2023-03-31T16:17:27.714Z,100.00
2023-03-31T16:22:37.975Z,100.00
2023-03-31T16:27:43.976Z,100.00
2023-03-31T16:33:01.755Z,100.00
2023-03-31T16:38:07.006Z,100.00
2023-03-31T16:43:36.323Z,100.00
2023-03-31T16:48:39.062Z,100.00
2023-03-31T16:53:42.035Z,100.00
2023-03-31T16:58:45.235Z,100.00
2023-03-31T17:03:48.585Z,100.00
2023-03-31T17:08:51.484Z,100.00
2023-03-31T17:13:56.688Z,100.00
2023-03-31T17:18:59.513Z,100.00
2023-03-31T17:29:25.686Z,100.00
2023-03-31T17:34:29.042Z,100.00
2023-03-31T17:39:32.230Z,100.00
2023-03-31T17:44:35.174Z,100.00
2023-03-31T17:49:38.530Z,100.00
2023-03-31T17:54:42.051Z,100.00
2023-03-31T17:59:45.164Z,100.00
2023-03-31T18:04:47.968Z,100.00
2023-03-31T18:09:51.814Z,100.00
2023-03-31T18:14:58.229Z,100.00
2023-03-31T18:20:01.024Z,100.00
2023-03-31T18:25:04.104Z,100.00
2023-03-31T18:30:08.520Z,100.00
2023-03-31T18:35:11.496Z,100.00
2023-03-31T18:40:15.043Z,100.00
2023-03-31T18:45:18.739Z,100.00
2023-03-31T18:50:23.356Z,100.00
2023-03-31T18:55:26.680Z,100.00
2023-03-31T19:00:29.922Z,100.00
2023-03-31T19:05:33.047Z,100.00
2023-03-31T19:10:36.588Z,100.00
2023-03-31T19:15:39.320Z,100.00
2023-03-31T19:20:42.345Z,100.00
2023-03-31T19:25:45.025Z,100.00
2023-03-31T19:30:49.756Z,100.00
2023-03-31T19:35:52.886Z,100.00
2023-03-31T19:40:56.021Z,100.00
2023-03-31T19:46:00.624Z,100.00
2023-03-31T19:51:04.462Z,100.00
2023-03-31T19:56:10.230Z,100.00
2023-03-31T20:01:23.407Z,100.00
2023-03-31T20:06:27.328Z,100.00
2023-03-31T20:11:32.085Z,100.00
2023-03-31T20:16:35.542Z,100.00
2023-03-31T20:21:39.116Z,100.00
2023-03-31T20:26:42.098Z,100.00
2023-03-31T20:31:44.884Z,100.00
2023-03-31T20:36:49.482Z,100.00
2023-03-31T20:41:52.685Z,100.00
2023-03-31T20:46:56.424Z,100.00
2023-03-31T20:52:01.328Z,100.00
2023-03-31T20:57:06.209Z,100.00
2023-03-31T21:02:12.868Z,100.00
2023-03-31T21:07:15.692Z,100.00
2023-03-31T21:12:19.709Z,100.00
2023-03-31T21:17:22.518Z,100.00
2023-03-31T21:22:25.407Z,100.00
2023-03-31T21:27:28.095Z,100.00
2023-03-31T21:32:31.442Z,100.00
2023-03-31T21:37:34.356Z,100.00
2023-03-31T21:42:37.552Z,100.00
2023-03-31T21:47:40.148Z,100.00
2023-03-31T21:52:46.383Z,100.00
2023-03-31T21:57:49.972Z,100.00
2023-03-31T22:03:22.151Z,100.00
2023-03-31T22:08:33.239Z,100.00
2023-03-31T22:13:52.401Z,100.00
2023-03-31T22:18:55.179Z,100.00
2023-03-31T22:24:00.074Z,100.00
2023-03-31T22:29:02.842Z,100.00
2023-03-31T22:34:05.554Z,100.00
2023-03-31T22:39:10.353Z,100.00
2023-03-31T22:44:13.051Z,100.00
2023-03-31T22:49:15.861Z,100.00
2023-03-31T22:54:18.655Z,100.00
2023-03-31T22:59:21.612Z,100.00
2023-03-31T23:04:24.458Z,100.00
2023-03-31T23:09:27.233Z,100.00
2023-03-31T23:14:29.944Z,100.00
2023-03-31T23:19:33.676Z,100.00
2023-03-31T23:24:36.359Z,100.00
2023-03-31T23:29:39.182Z,100.00
2023-03-31T23:34:42.482Z,100.00
2023-03-31T23:39:45.603Z,100.00
2023-03-31T23:44:48.285Z,100.00
2023-03-31T23:49:51.178Z,100.00
2023-03-31T23:54:53.883Z,100.00
2023-03-31T23:59:56.655Z,100.00
